Aérodrome :
LOGIN :

S'inscrire | Disclaimer

   EN    FR    IT 

 










Légende :    VFR   VFR Marginal   IFR   IFR Intensif   IFR Très Intensif
Visi : 
Plafond : 
>= 8 km
>= 3000ft
5 à 8 km
1000 à 3000 ft
1500m à 5 km
500 à 1000 ft
800 à 1500m
200 à 500 ft
< 800m
< 200 ft
Symboles :   Orages  Brouillard  Fortes neiges  Fortes précipitations  Vent > 20 kt
SIGMETs :   Divers  Orages  Givrage  Turbulence  Onde Orograph.  Cendres Volcan.






- Altitude de l'aérodrome : 16 ft
- Code IATA : SDR


LEXJ - Santander Cantabria

DERNIER METAR :
  • 181730Z 12009KT 090V150 9999 FEW015 SCT046 BKN086 19/17 Q1010

METARs EXPIRÉS :
  • 181700Z 11004KT 060V180 9999 FEW014 SCT044 BKN084 19/18 Q1010
  • 181630Z 06004KT 350V140 9999 -RA SCT042 BKN086 19/18 Q1010
  • 181600Z 08005KT 360V170 9999 -RA FEW016 SCT054 BKN086 19/18 Q1011
  • 181530Z 06008G18KT 9999 FEW016 BKN086 19/18 Q1011
  • 181500Z 02008KT 330V070 9999 FEW018 BKN084 20/18 Q1011
  • 181430Z 05007KT 330V130 9999 FEW023 SCT080 21/17 Q1010
  • 181400Z 06006KT 330V130 9999 FEW023 23/18 Q1010
  • 181330Z 10012KT 060V160 9999 FEW018 SCT080 23/18 Q1010
  • 181300Z 10011KT 070V140 9999 FEW015 SCT070 22/18 Q1010

TAF AMD TAF LEXJ
Valide du 18 à 15h jusqu'au 19 à 15h UTC


181509Z 1815/1915 04009KT 9999 SCT030 TX25/1815Z TN17/1905Z
TEMPO 1815/1909 3000 SHRA SCT040TCU
PROB40
TEMPO 1815/1903 31010KT 1500 TSRA SCT040CB
TEMPO 1821/1915 27010KT BKN010



MET'MAP, la Météo Aéronautique d'un coup d'oeil ! - Copyright ORBIFLY Décembre 2007 - Disclaimer

ORBIFLY MET'MAP TEAM :

Programmation & Développement : Alexandra Zaïnal
Sur une idée originale de : Baudouin d'Aumeries
Soutien technique & logistique : Manuel Goepfert
Assistance : Marc-Olivier Méhu




SOURCES & CREDITS :

   NOAA